Time;durP1;ratioP1;P1;durP2;ratioP2;P2;SDS_P1;SDS_P2;PMS_P1;PMS_P2;Temp;Humidity;BMP_temperature;BMP_pressure;BME280_temperature;BME280_humidity;BME280_pressure;Samples;Min_cycle;Max_cycle;Signal;HPM_P1;HPM_P2
2020/12/24 00:02:22;;;;;;;1.27;0.93;;;9.80;99.90;;;;;;5033470;28;20482;-55
2020/12/24 00:04:49;;;;;;;0.80;0.77;;;9.80;99.90;;;;;;5034695;28;20467;-55
2020/12/24 00:07:15;;;;;;;1.33;0.60;;;9.80;99.90;;;;;;5028929;28;20831;-55
2020/12/24 00:09:44;;;;;;;0.50;0.40;;;9.80;99.90;;;;;;5027769;28;20469;-55
2020/12/24 00:12:12;;;;;;;1.20;0.50;;;10.00;99.90;;;;;;5033553;28;20475;-55
2020/12/24 00:14:38;;;;;;;0.80;0.70;;;9.90;99.90;;;;;;5033310;28;20460;-55
2020/12/24 00:17:05;;;;;;;1.43;1.00;;;9.70;99.90;;;;;;5033118;28;21157;-55
2020/12/24 00:19:31;;;;;;;1.27;1.17;;;9.70;99.90;;;;;;5033321;28;20546;-55
2020/12/24 00:21:58;;;;;;;3.37;2.23;;;9.80;99.90;;;;;;5032823;28;20502;-55
2020/12/24 00:24:24;;;;;;;1.63;1.53;;;10.00;99.90;;;;;;5033208;28;20448;-55
2020/12/24 00:26:51;;;;;;;1.43;1.10;;;10.10;99.90;;;;;;5020283;28;20472;-55
2020/12/24 00:29:18;;;;;;;3.43;2.40;;;10.10;99.90;;;;;;5022625;28;20476;-55
2020/12/24 00:31:45;;;;;;;2.67;1.30;;;10.00;99.90;;;;;;5033623;28;20460;-55
2020/12/24 00:34:12;;;;;;;1.97;1.77;;;9.80;99.90;;;;;;5034176;28;20440;-55
2020/12/24 00:36:39;;;;;;;0.83;0.80;;;9.80;99.90;;;;;;5033199;28;21088;-55
2020/12/24 00:39:06;;;;;;;2.57;1.90;;;9.70;99.90;;;;;;5034034;28;20495;-55
2020/12/24 00:41:32;;;;;;;1.07;0.97;;;9.70;99.90;;;;;;5033596;28;20574;-55
2020/12/24 00:43:59;;;;;;;1.20;1.03;;;9.60;99.90;;;;;;5033261;28;20449;-55
2020/12/24 00:46:26;;;;;;;0.80;0.70;;;9.50;99.90;;;;;;5033546;28;20449;-55
2020/12/24 00:48:53;;;;;;;0.90;0.70;;;9.60;99.90;;;;;;5033563;28;20488;-55
2020/12/24 00:51:19;;;;;;;0.80;0.70;;;9.50;99.90;;;;;;5032851;28;20448;-55
2020/12/24 00:53:46;;;;;;;1.00;0.90;;;9.50;99.90;;;;;;5033732;28;20519;-55
2020/12/24 00:56:12;;;;;;;0.90;0.70;;;9.50;99.90;;;;;;5033703;28;20459;-55
2020/12/24 00:58:39;;;;;;;0.80;0.80;;;9.40;99.90;;;;;;5032781;28;20468;-55
2020/12/24 01:01:06;;;;;;;1.37;1.07;;;9.40;99.90;;;;;;5033144;28;20484;-55
2020/12/24 01:03:33;;;;;;;1.10;0.80;;;9.60;99.90;;;;;;5031785;28;20498;-55
2020/12/24 01:06:00;;;;;;;0.80;0.70;;;9.50;99.90;;;;;;5032972;28;20491;-55
2020/12/24 01:08:26;;;;;;;0.87;0.60;;;9.50;99.90;;;;;;5033594;28;20464;-55
2020/12/24 01:10:53;;;;;;;0.90;0.60;;;9.50;99.90;;;;;;5032975;28;20455;-55
2020/12/24 01:13:20;;;;;;;1.30;0.60;;;9.50;99.90;;;;;;5033630;28;20484;-56
2020/12/24 01:15:47;;;;;;;1.90;1.40;;;9.50;99.90;;;;;;5033506;28;20588;-55
2020/12/24 01:18:13;;;;;;;1.60;1.50;;;9.50;99.90;;;;;;5032534;28;20499;-55
2020/12/24 01:20:40;;;;;;;3.10;2.13;;;9.50;99.90;;;;;;5033078;28;20481;-55
2020/12/24 01:23:07;;;;;;;2.30;1.70;;;9.50;99.90;;;;;;5033367;28;20518;-55
2020/12/24 01:25:34;;;;;;;1.00;0.90;;;9.40;99.90;;;;;;5033343;28;20449;-55
2020/12/24 01:28:00;;;;;;;1.20;1.10;;;9.30;99.90;;;;;;5032780;28;20484;-55
2020/12/24 01:30:27;;;;;;;1.53;1.43;;;9.30;99.90;;;;;;5032702;28;20939;-55
2020/12/24 01:32:54;;;;;;;2.13;0.80;;;9.40;99.90;;;;;;5032659;28;20449;-55
2020/12/24 01:35:21;;;;;;;1.00;0.70;;;9.20;99.90;;;;;;5033224;28;20452;-55
2020/12/24 01:37:48;;;;;;;1.90;0.60;;;9.30;99.90;;;;;;5032810;28;20449;-55
2020/12/24 01:40:15;;;;;;;1.20;0.60;;;9.30;99.90;;;;;;5032317;28;20997;-55
2020/12/24 01:42:42;;;;;;;0.60;0.40;;;9.30;99.90;;;;;;5032715;28;20464;-55
2020/12/24 01:45:08;;;;;;;1.17;0.70;;;9.50;99.90;;;;;;5032068;28;20950;-55
2020/12/24 01:47:35;;;;;;;1.00;0.73;;;9.60;99.90;;;;;;5031732;28;20506;-55
2020/12/24 01:50:01;;;;;;;0.60;0.60;;;9.40;99.90;;;;;;5032152;28;20452;-55
2020/12/24 01:52:33;;;;;;;0.73;0.50;;;9.30;99.90;;;;;;5032499;28;20452;-55
2020/12/24 01:55:03;;;;;;;0.70;0.50;;;9.20;99.90;;;;;;5032606;28;20479;-55
2020/12/24 01:57:30;;;;;;;0.60;0.50;;;9.00;99.90;;;;;;5031625;28;20453;-55
2020/12/24 01:59:57;;;;;;;0.60;0.50;;;9.00;99.90;;;;;;5031041;28;21053;-55
2020/12/24 02:02:24;;;;;;;1.00;0.40;;;9.00;99.90;;;;;;5032655;28;20455;-55
2020/12/24 02:04:50;;;;;;;0.70;0.50;;;9.00;99.90;;;;;;5032579;28;20459;-55
2020/12/24 02:07:18;;;;;;;1.43;0.50;;;9.00;99.90;;;;;;5032054;28;20448;-55
2020/12/24 02:09:46;;;;;;;0.70;0.50;;;9.10;99.90;;;;;;5031969;28;20477;-55
2020/12/24 02:12:14;;;;;;;0.50;0.40;;;9.10;99.90;;;;;;5031110;28;20503;-55
2020/12/24 02:14:41;;;;;;;1.33;0.50;;;9.00;99.90;;;;;;5031355;28;20498;-55
2020/12/24 02:17:08;;;;;;;0.50;0.30;;;9.10;99.90;;;;;;5031713;28;20456;-55
2020/12/24 02:19:35;;;;;;;0.50;0.40;;;9.00;99.90;;;;;;5031879;28;20477;-55
2020/12/24 02:22:03;;;;;;;0.50;0.50;;;9.10;99.90;;;;;;5031921;28;20542;-55
2020/12/24 02:24:30;;;;;;;0.87;0.50;;;9.10;99.90;;;;;;5032145;28;20449;-55
2020/12/24 02:26:56;;;;;;;0.50;0.40;;;9.00;99.90;;;;;;5029778;28;20453;-55
2020/12/24 02:29:23;;;;;;;0.80;0.50;;;9.10;99.90;;;;;;5031197;28;20477;-55
2020/12/24 02:31:49;;;;;;;0.50;0.40;;;9.30;99.90;;;;;;5031304;28;20448;-55
2020/12/24 02:34:16;;;;;;;0.50;0.47;;;9.00;99.90;;;;;;5031739;28;20475;-55
2020/12/24 02:36:43;;;;;;;0.63;0.50;;;9.10;99.90;;;;;;5030210;28;20452;-55
2020/12/24 02:39:10;;;;;;;0.60;0.40;;;9.10;99.90;;;;;;5030762;28;20468;-55
2020/12/24 02:41:36;;;;;;;0.90;0.60;;;9.10;99.90;;;;;;5031341;28;20484;-55
2020/12/24 02:44:05;;;;;;;0.50;0.40;;;9.20;99.90;;;;;;5031860;28;20448;-55
2020/12/24 02:46:32;;;;;;;0.60;0.40;;;8.80;99.90;;;;;;5031113;28;20959;-55
2020/12/24 02:48:58;;;;;;;4.43;0.40;;;9.00;99.90;;;;;;5031363;28;20690;-55
2020/12/24 02:51:25;;;;;;;0.50;0.40;;;8.90;99.90;;;;;;5030922;28;20453;-55
2020/12/24 02:53:51;;;;;;;0.77;0.53;;;8.90;99.90;;;;;;5030998;28;20452;-56
2020/12/24 02:56:19;;;;;;;1.33;0.43;;;8.90;99.90;;;;;;5031107;28;20529;-55
2020/12/24 02:58:45;;;;;;;0.50;0.40;;;8.70;99.90;;;;;;5030449;28;20483;-55
2020/12/24 03:01:12;;;;;;;0.50;0.40;;;8.70;99.90;;;;;;5031069;28;20837;-55
2020/12/24 03:03:38;;;;;;;0.50;0.40;;;8.60;99.90;;;;;;5030545;28;20864;-55
2020/12/24 03:06:05;;;;;;;0.53;0.40;;;8.50;99.90;;;;;;5030950;28;20448;-55
2020/12/24 03:08:31;;;;;;;0.60;0.40;;;8.60;99.90;;;;;;5030919;28;20468;-55
2020/12/24 03:10:58;;;;;;;0.90;0.30;;;8.70;99.90;;;;;;5030659;28;20518;-55
2020/12/24 03:13:25;;;;;;;0.50;0.40;;;8.70;99.90;;;;;;5030229;28;20452;-55
2020/12/24 03:15:51;;;;;;;0.50;0.40;;;8.70;99.90;;;;;;5030614;28;20448;-55
2020/12/24 03:18:18;;;;;;;0.73;0.33;;;8.60;99.90;;;;;;5030911;28;20476;-55
2020/12/24 03:20:44;;;;;;;0.50;0.30;;;8.70;99.90;;;;;;5030678;28;20480;-55
2020/12/24 03:23:11;;;;;;;0.50;0.40;;;8.80;99.90;;;;;;5030603;28;20479;-55
2020/12/24 03:25:37;;;;;;;0.50;0.40;;;8.90;99.90;;;;;;5030102;28;20459;-55
2020/12/24 03:28:04;;;;;;;0.90;0.53;;;9.00;99.90;;;;;;5030238;28;20476;-55
2020/12/24 03:30:31;;;;;;;1.80;0.40;;;9.00;99.90;;;;;;5030155;28;20448;-55
2020/12/24 03:32:57;;;;;;;0.50;0.40;;;8.70;99.90;;;;;;5030484;28;20456;-54
2020/12/24 03:35:24;;;;;;;0.80;0.37;;;8.40;99.90;;;;;;5030234;28;20483;-55
2020/12/24 03:37:50;;;;;;;0.60;0.40;;;8.20;99.90;;;;;;5030372;28;20460;-55
2020/12/24 03:40:17;;;;;;;1.10;0.30;;;8.10;99.90;;;;;;5030583;28;20480;-55
2020/12/24 03:42:43;;;;;;;0.50;0.40;;;8.10;99.90;;;;;;5029853;28;20458;-54
2020/12/24 03:45:10;;;;;;;1.10;0.50;;;8.00;99.90;;;;;;5010825;28;20456;-55
2020/12/24 03:47:37;;;;;;;0.50;0.40;;;7.90;99.90;;;;;;5019260;28;20449;-55
2020/12/24 03:50:04;;;;;;;0.60;0.40;;;7.80;99.90;;;;;;5030175;28;20460;-54
2020/12/24 03:52:30;;;;;;;0.70;0.43;;;7.80;99.90;;;;;;5030391;28;20452;-55
2020/12/24 03:54:57;;;;;;;0.60;0.40;;;7.80;99.90;;;;;;5030281;28;20479;-54
2020/12/24 03:57:23;;;;;;;0.50;0.30;;;7.90;99.90;;;;;;5029580;28;20823;-55
2020/12/24 03:59:50;;;;;;;0.60;0.40;;;7.90;99.90;;;;;;5030030;28;20476;-55
2020/12/24 04:02:16;;;;;;;0.50;0.30;;;7.90;99.90;;;;;;5030650;28;20484;-55
2020/12/24 04:04:43;;;;;;;1.03;0.40;;;8.00;99.90;;;;;;5030201;28;20816;-55
2020/12/24 04:07:10;;;;;;;0.60;0.40;;;8.00;99.90;;;;;;5030375;28;20494;-55
2020/12/24 04:09:36;;;;;;;2.10;0.40;;;7.90;99.90;;;;;;5030278;28;20981;-54
2020/12/24 04:12:03;;;;;;;0.57;0.40;;;7.80;99.90;;;;;;5030126;28;20452;-55
2020/12/24 04:14:30;;;;;;;0.60;0.40;;;7.80;99.90;;;;;;5029782;28;20456;-55
2020/12/24 04:16:56;;;;;;;1.67;1.30;;;7.80;99.90;;;;;;5030258;28;20535;-55
2020/12/24 04:19:23;;;;;;;0.60;0.40;;;7.80;99.90;;;;;;5029405;28;20480;-55
2020/12/24 04:21:50;;;;;;;1.43;0.40;;;7.70;99.90;;;;;;5030058;28;20988;-55
2020/12/24 04:24:17;;;;;;;1.63;0.50;;;7.70;99.90;;;;;;5029841;28;20452;-55
2020/12/24 04:26:43;;;;;;;0.50;0.40;;;7.70;99.90;;;;;;5029031;28;20457;-55
2020/12/24 04:29:10;;;;;;;0.67;0.40;;;7.60;99.90;;;;;;5064981;22;20502;-52
2020/12/24 04:31:41;;;;;;;0.50;0.40;;;7.70;99.90;;;;;;5089559;28;20499;-52
2020/12/24 04:34:07;;;;;;;0.60;0.40;;;7.70;99.90;;;;;;5089574;28;20518;-52
2020/12/24 04:36:34;;;;;;;1.40;0.40;;;7.80;99.90;;;;;;5089988;28;20943;-52
2020/12/24 04:39:03;;;;;;;1.70;0.53;;;7.80;99.90;;;;;;5084494;28;20564;-52
2020/12/24 04:41:29;;;;;;;0.80;0.40;;;7.50;99.90;;;;;;5073296;28;20485;-52
2020/12/24 04:43:57;;;;;;;1.03;0.50;;;7.30;99.90;;;;;;5072897;28;20851;-52
2020/12/24 04:46:28;;;;;;;0.60;0.50;;;7.20;99.90;;;;;;5073377;28;20451;-52
2020/12/24 04:48:56;;;;;;;0.70;0.50;;;7.10;99.90;;;;;;5072911;28;21049;-52
2020/12/24 04:51:23;;;;;;;1.53;0.60;;;7.00;99.90;;;;;;5072779;28;20446;-52
2020/12/24 04:53:49;;;;;;;0.60;0.53;;;7.10;99.90;;;;;;5072790;28;20454;-52
2020/12/24 04:56:16;;;;;;;0.77;0.77;;;7.30;99.90;;;;;;5073022;28;20451;-52
2020/12/24 04:58:43;;;;;;;0.80;0.70;;;7.20;99.90;;;;;;5072737;28;20480;-52
2020/12/24 05:01:18;;;;;;;1.00;0.90;;;7.10;99.90;;;;;;5073321;28;20539;-52
2020/12/24 05:03:45;;;;;;;0.80;0.50;;;7.20;99.90;;;;;;5072709;28;20453;-52
2020/12/24 05:06:15;;;;;;;0.73;0.50;;;7.30;99.90;;;;;;5073600;28;20461;-52
2020/12/24 05:08:49;;;;;;;2.00;0.50;;;7.40;99.90;;;;;;5071024;28;20879;-52
2020/12/24 05:11:23;;;;;;;2.40;0.50;;;7.30;99.90;;;;;;5072040;28;20443;-51
2020/12/24 05:13:50;;;;;;;0.90;0.40;;;7.30;99.90;;;;;;5072996;28;20468;-52
2020/12/24 05:16:16;;;;;;;1.30;0.50;;;7.20;99.90;;;;;;5072808;28;20455;-51
2020/12/24 05:18:43;;;;;;;1.10;0.50;;;7.20;99.90;;;;;;5072339;28;20470;-52
2020/12/24 05:21:10;;;;;;;2.40;0.50;;;7.00;99.90;;;;;;5072141;28;20568;-52
2020/12/24 05:23:36;;;;;;;0.60;0.40;;;6.90;99.90;;;;;;5072006;28;20443;-51
2020/12/24 05:26:19;;;;;;;1.57;0.40;;;6.90;99.90;;;;;;5072712;28;21092;-51
2020/12/24 05:28:46;;;;;;;0.50;0.40;;;7.20;99.90;;;;;;5072180;28;20557;-51
2020/12/24 05:31:31;;;;;;;0.60;0.50;;;7.50;99.90;;;;;;5072260;28;20478;-51
2020/12/24 05:33:58;;;;;;;0.57;0.50;;;7.80;99.90;;;;;;5072005;28;20451;-51
2020/12/24 05:36:24;;;;;;;0.60;0.43;;;7.70;99.90;;;;;;5072097;28;20447;-52
2020/12/24 05:38:52;;;;;;;1.50;1.40;;;7.80;99.90;;;;;;5071673;28;20473;-51
2020/12/24 05:41:33;;;;;;;3.07;0.70;;;7.70;99.90;;;;;;5066284;28;20524;-51
2020/12/24 05:44:01;;;;;;;0.77;0.40;;;7.50;99.90;;;;;;5063256;28;20447;-51
2020/12/24 05:46:29;;;;;;;1.00;0.50;;;7.60;99.90;;;;;;5052352;28;20478;-52
2020/12/24 05:48:56;;;;;;;0.50;0.40;;;7.60;99.90;;;;;;5051378;28;20978;-52
2020/12/24 05:51:23;;;;;;;0.90;0.47;;;7.50;99.90;;;;;;5052249;28;20929;-52
2020/12/24 05:53:49;;;;;;;1.93;0.50;;;7.60;99.90;;;;;;5052171;28;20454;-52
2020/12/24 05:56:21;;;;;;;1.10;0.70;;;7.50;99.90;;;;;;5061508;28;20446;-51
2020/12/24 05:58:50;;;;;;;1.30;0.87;;;7.40;99.90;;;;;;5072218;28;20469;-51
2020/12/24 06:01:16;;;;;;;0.80;0.80;;;7.40;99.90;;;;;;5071944;28;20524;-52
2020/12/24 06:04:05;;;;;;;21.50;8.53;;;7.30;99.90;;;;;;5071923;28;20453;-52
2020/12/24 06:06:46;;;;;;;6.80;3.43;;;7.40;99.90;;;;;;5071716;28;20442;-52
2020/12/24 06:09:15;;;;;;;1.30;1.20;;;7.40;99.90;;;;;;5071493;28;21056;-51
2020/12/24 06:11:50;;;;;;;1.20;1.10;;;7.50;99.90;;;;;;5071094;28;20439;-52
2020/12/24 06:14:33;;;;;;;2.30;0.80;;;7.50;99.90;;;;;;5052870;28;20438;-52
2020/12/24 06:17:04;;;;;;;1.47;1.10;;;7.50;99.90;;;;;;5059008;28;20446;-52
2020/12/24 06:19:37;;;;;;;1.27;1.03;;;7.40;99.90;;;;;;5071355;28;20471;-52
2020/12/24 06:22:03;;;;;;;1.63;1.00;;;7.20;99.90;;;;;;5071356;28;20493;-52
2020/12/24 06:24:31;;;;;;;1.10;0.70;;;7.20;99.90;;;;;;5071353;28;20918;-52
2020/12/24 06:27:05;;;;;;;0.90;0.80;;;7.20;99.90;;;;;;5070482;28;21127;-52
2020/12/24 06:29:36;;;;;;;1.07;0.80;;;7.30;99.90;;;;;;5070439;28;20987;-51
2020/12/24 06:32:04;;;;;;;1.77;1.17;;;7.40;99.90;;;;;;5070802;28;20534;-52
2020/12/24 06:34:31;;;;;;;1.37;1.10;;;7.40;99.90;;;;;;5066354;28;20532;-52
2020/12/24 06:37:11;;;;;;;6.63;1.13;;;7.40;99.90;;;;;;5071214;28;20458;-51
2020/12/24 06:39:39;;;;;;;1.23;0.80;;;7.40;99.90;;;;;;5066135;28;20467;-52
2020/12/24 06:42:06;;;;;;;1.47;0.80;;;7.30;99.90;;;;;;5051282;28;20501;-52
2020/12/24 06:44:49;;;;;;;1.23;0.97;;;6.80;99.90;;;;;;5065004;28;20450;-51
2020/12/24 06:47:16;;;;;;;1.23;1.00;;;6.70;99.90;;;;;;5051252;28;20459;-52
2020/12/24 06:49:43;;;;;;;1.40;1.30;;;6.70;99.90;;;;;;5050853;28;20490;-52
2020/12/24 06:52:10;;;;;;;2.23;1.73;;;6.60;99.90;;;;;;5050892;28;20443;-51
2020/12/24 06:54:38;;;;;;;4.70;3.33;;;6.70;99.90;;;;;;5051100;28;20497;-51
2020/12/24 06:57:24;;;;;;;3.80;3.20;;;6.70;99.90;;;;;;5062938;28;20449;-52
2020/12/24 07:00:21;;;;;;;3.90;2.00;;;6.80;99.90;;;;;;5064615;28;20488;-51
2020/12/24 07:02:49;;;;;;;8.67;5.43;;;6.70;99.90;;;;;;5070117;28;20447;-52
2020/12/24 07:05:42;;;;;;;5.17;2.77;;;6.90;99.90;;;;;;5052802;28;20451;-51
2020/12/24 07:08:10;;;;;;;3.20;1.63;;;6.80;99.90;;;;;;5070450;28;20458;-52
2020/12/24 07:10:44;;;;;;;2.23;1.53;;;6.70;99.90;;;;;;5070230;28;20954;-51
2020/12/24 07:13:11;;;;;;;2.90;1.70;;;6.70;99.90;;;;;;5070934;28;20817;-51
2020/12/24 07:15:44;;;;;;;2.77;2.07;;;6.70;99.90;;;;;;5061988;28;20528;-52
2020/12/24 07:18:13;;;;;;;2.57;1.70;;;6.80;99.90;;;;;;5065744;28;20490;-51
2020/12/24 07:20:40;;;;;;;2.40;1.90;;;6.70;99.90;;;;;;5064011;28;20486;-51
2020/12/24 07:23:09;;;;;;;3.80;2.67;;;6.60;99.90;;;;;;5070516;28;20450;-52
2020/12/24 07:25:36;;;;;;;2.80;2.03;;;6.70;99.90;;;;;;5070037;28;20470;-52
2020/12/24 07:28:03;;;;;;;2.63;2.00;;;6.70;99.90;;;;;;5070564;28;20458;-52
2020/12/24 07:30:30;;;;;;;2.63;2.43;;;6.90;99.90;;;;;;5069550;28;20563;-52
2020/12/24 07:32:58;;;;;;;2.47;2.00;;;6.90;99.90;;;;;;5069710;28;20835;-52
2020/12/24 07:35:25;;;;;;;2.47;2.27;;;6.80;99.90;;;;;;5069975;28;20904;-51
2020/12/24 07:37:52;;;;;;;3.57;2.90;;;6.90;99.90;;;;;;5070360;28;20450;-52
2020/12/24 07:40:19;;;;;;;4.80;4.13;;;7.00;99.90;;;;;;5070033;28;20473;-52
2020/12/24 07:42:45;;;;;;;10.00;6.73;;;7.00;99.90;;;;;;5070339;28;20450;-51
2020/12/24 07:45:13;;;;;;;7.00;5.37;;;7.10;99.90;;;;;;5070375;28;20461;-52
2020/12/24 07:47:48;;;;;;;4.93;3.80;;;7.00;99.90;;;;;;5070465;28;21036;-52
2020/12/24 07:50:16;;;;;;;9.77;7.83;;;7.10;99.90;;;;;;5058288;28;20604;-52
2020/12/24 07:52:46;;;;;;;11.00;6.67;;;7.10;99.90;;;;;;5050096;28;20952;-52
2020/12/24 07:55:13;;;;;;;8.47;5.60;;;7.10;99.90;;;;;;5050475;28;20443;-52
2020/12/24 07:57:39;;;;;;;7.67;4.67;;;7.10;99.90;;;;;;5050431;28;20448;-51
2020/12/24 08:00:06;;;;;;;4.90;3.63;;;7.20;99.90;;;;;;5050110;28;20482;-51
2020/12/24 08:02:33;;;;;;;3.10;2.67;;;7.10;99.90;;;;;;5050230;28;20609;-51
2020/12/24 08:05:00;;;;;;;3.10;2.50;;;7.10;99.90;;;;;;5050260;28;20542;-52
2020/12/24 08:07:27;;;;;;;3.43;2.07;;;7.10;99.90;;;;;;5068823;28;20443;-52
2020/12/24 08:09:54;;;;;;;1.90;1.60;;;7.10;99.90;;;;;;5069103;28;20480;-51
2020/12/24 08:12:22;;;;;;;3.63;2.00;;;7.20;99.90;;;;;;5070652;28;20439;-51
2020/12/24 08:14:50;;;;;;;2.47;1.83;;;7.50;99.90;;;;;;5073938;28;20472;-51
2020/12/24 08:17:29;;;;;;;3.43;2.00;;;7.20;99.90;;;;;;5073492;28;20537;-52
2020/12/24 08:20:06;;;;;;;2.93;1.83;;;7.10;99.90;;;;;;5071864;28;20470;-52
2020/12/24 08:22:43;;;;;;;2.80;2.13;;;6.90;99.90;;;;;;5070526;28;20496;-51
2020/12/24 08:25:10;;;;;;;7.30;2.87;;;6.90;99.90;;;;;;5068533;28;20456;-52
2020/12/24 08:27:37;;;;;;;3.33;2.87;;;6.90;99.90;;;;;;5072266;28;20466;-52
2020/12/24 08:30:06;;;;;;;6.60;4.10;;;7.00;99.90;;;;;;5072516;28;20474;-52
2020/12/24 08:32:33;;;;;;;5.67;4.17;;;7.00;99.90;;;;;;5071335;28;20492;-52
2020/12/24 08:35:11;;;;;;;7.90;5.50;;;6.90;99.90;;;;;;5071035;28;20449;-51
2020/12/24 08:37:39;;;;;;;5.10;4.10;;;6.80;99.90;;;;;;5065539;28;20490;-51
2020/12/24 08:40:19;;;;;;;10.00;4.70;;;6.80;99.90;;;;;;5068008;28;21007;-51
2020/12/24 08:42:47;;;;;;;10.17;6.87;;;7.10;99.90;;;;;;5053257;28;20995;-52
2020/12/24 08:45:14;;;;;;;10.90;5.63;;;7.10;99.90;;;;;;5072131;28;20486;-52
2020/12/24 08:47:41;;;;;;;8.37;4.87;;;7.00;99.90;;;;;;5072964;28;20830;-51
2020/12/24 08:50:08;;;;;;;5.97;4.60;;;7.10;99.90;;;;;;5072754;28;20473;-51
2020/12/24 08:52:43;;;;;;;7.67;4.13;;;7.20;99.90;;;;;;5071943;28;20454;-52
2020/12/24 08:55:10;;;;;;;7.17;5.10;;;7.50;99.90;;;;;;5060094;28;20475;-52
2020/12/24 08:57:38;;;;;;;9.87;6.70;;;7.50;99.90;;;;;;5072488;28;20451;-52
2020/12/24 09:00:06;;;;;;;7.90;5.90;;;7.60;99.90;;;;;;5073202;28;20509;-52
2020/12/24 09:02:34;;;;;;;9.77;7.20;;;7.80;99.90;;;;;;5072135;28;20489;-51
2020/12/24 09:05:02;;;;;;;8.27;6.50;;;7.70;99.90;;;;;;5063961;28;20447;-52
2020/12/24 09:07:32;;;;;;;11.80;6.83;;;7.40;99.90;;;;;;5071212;28;20461;-52
2020/12/24 09:10:04;;;;;;;8.80;6.73;;;7.50;99.90;;;;;;5071703;28;20471;-52
2020/12/24 09:12:31;;;;;;;11.00;5.80;;;7.60;99.90;;;;;;5073046;28;20796;-52
2020/12/24 09:15:04;;;;;;;6.90;5.70;;;7.60;99.90;;;;;;5072221;28;20450;-52
2020/12/24 09:17:30;;;;;;;7.50;5.63;;;7.50;99.90;;;;;;5071884;28;20500;-52
2020/12/24 09:20:04;;;;;;;9.60;5.10;;;7.50;99.90;;;;;;5070166;28;20991;-52
2020/12/24 09:22:31;;;;;;;8.23;5.10;;;7.70;99.90;;;;;;5072354;28;20481;-52
2020/12/24 09:24:57;;;;;;;8.10;5.80;;;7.30;99.90;;;;;;5070221;28;20447;-52
2020/12/24 09:27:25;;;;;;;8.07;6.10;;;7.20;99.90;;;;;;5072248;28;20516;-51
2020/12/24 09:29:51;;;;;;;7.83;5.43;;;7.30;99.90;;;;;;5071962;28;21003;-52
2020/12/24 09:32:18;;;;;;;6.10;4.80;;;7.40;99.90;;;;;;5055104;28;20506;-52
2020/12/24 09:34:45;;;;;;;4.97;3.90;;;7.40;99.90;;;;;;5069247;28;20496;-52
2020/12/24 09:37:11;;;;;;;6.57;4.57;;;7.40;99.90;;;;;;5072494;28;20470;-52
2020/12/24 09:39:38;;;;;;;4.83;4.10;;;7.60;99.90;;;;;;5067139;28;20479;-52
2020/12/24 09:42:05;;;;;;;4.43;3.60;;;7.80;99.90;;;;;;5058741;28;20843;-52
2020/12/24 09:44:32;;;;;;;11.90;7.30;;;8.00;99.90;;;;;;5066041;28;20483;-52
2020/12/24 09:46:59;;;;;;;11.90;7.90;;;8.10;99.90;;;;;;5070956;28;20455;-52
2020/12/24 09:49:26;;;;;;;15.03;10.10;;;8.10;99.90;;;;;;5070609;28;20471;-52
2020/12/24 09:51:53;;;;;;;19.50;10.47;;;8.10;99.90;;;;;;5071872;28;20461;-53
2020/12/24 09:54:19;;;;;;;17.27;10.70;;;8.20;99.90;;;;;;5070381;28;20443;-53
2020/12/24 09:56:46;;;;;;;18.07;9.57;;;8.10;99.90;;;;;;5071575;28;20496;-53
2020/12/24 09:59:12;;;;;;;13.67;9.00;;;8.10;99.90;;;;;;5056972;28;20840;-53
2020/12/24 10:01:39;;;;;;;13.03;9.77;;;8.20;99.90;;;;;;5070847;28;20493;-53
2020/12/24 10:04:09;;;;;;;9.73;7.00;;;8.30;99.90;;;;;;5070427;28;20455;-53
2020/12/24 10:06:37;;;;;;;8.40;5.90;;;8.30;99.90;;;;;;5070792;28;21022;-53
2020/12/24 10:09:04;;;;;;;9.53;6.17;;;8.40;99.90;;;;;;5070554;28;20475;-53
2020/12/24 10:11:30;;;;;;;6.40;5.50;;;8.30;99.90;;;;;;5070799;28;20446;-53
2020/12/24 10:13:56;;;;;;;7.73;5.13;;;8.30;99.90;;;;;;5070624;28;20459;-53
2020/12/24 10:16:26;;;;;;;9.03;6.50;;;8.30;99.90;;;;;;5070580;28;20459;-52
2020/12/24 10:18:54;;;;;;;6.83;5.33;;;8.30;99.90;;;;;;5070368;28;20474;-52
2020/12/24 10:21:20;;;;;;;6.60;5.70;;;8.60;99.90;;;;;;5068138;28;20532;-52
2020/12/24 10:23:46;;;;;;;5.47;4.30;;;8.60;99.90;;;;;;5070830;28;20450;-53
2020/12/24 10:26:16;;;;;;;6.07;4.47;;;8.40;99.90;;;;;;5069498;28;20937;-52
2020/12/24 10:28:43;;;;;;;6.00;4.50;;;8.40;99.90;;;;;;5070798;28;20470;-53
2020/12/24 10:31:09;;;;;;;4.27;3.50;;;8.50;99.90;;;;;;5114349;22;20496;-55
2020/12/24 10:33:36;;;;;;;6.37;3.00;;;8.80;99.90;;;;;;5111090;28;20498;-55
2020/12/24 10:36:03;;;;;;;3.10;2.80;;;8.70;99.90;;;;;;5110560;28;20445;-55
2020/12/24 10:38:30;;;;;;;5.40;2.70;;;8.80;99.90;;;;;;5111486;28;20453;-55
2020/12/24 10:40:57;;;;;;;4.63;3.30;;;8.70;99.90;;;;;;5107030;28;20911;-55
2020/12/24 10:43:23;;;;;;;5.90;3.90;;;8.80;99.90;;;;;;5095541;28;20452;-55
2020/12/24 10:45:50;;;;;;;4.80;3.37;;;9.10;99.90;;;;;;5091219;28;20970;-55
2020/12/24 10:48:16;;;;;;;8.40;4.43;;;9.60;99.90;;;;;;5076802;28;20446;-55
2020/12/24 10:50:43;;;;;;;9.67;5.13;;;9.70;99.90;;;;;;5089424;28;20469;-55
2020/12/24 10:53:11;;;;;;;10.73;4.23;;;10.10;99.90;;;;;;5090817;28;20450;-54
2020/12/24 10:55:38;;;;;;;4.60;2.80;;;10.30;99.90;;;;;;5091945;28;20438;-54
2020/12/24 10:58:05;;;;;;;3.50;2.77;;;10.20;99.90;;;;;;5094850;28;20442;-54
2020/12/24 11:00:33;;;;;;;3.33;3.00;;;10.00;99.90;;;;;;5091625;28;20473;-54
2020/12/24 11:03:00;;;;;;;3.53;2.77;;;9.90;99.90;;;;;;5087543;28;20565;-55
2020/12/24 11:05:26;;;;;;;2.93;2.63;;;9.90;99.90;;;;;;5106788;28;20449;-55
2020/12/24 11:07:54;;;;;;;2.70;2.13;;;10.10;99.90;;;;;;5109259;28;20498;-54
2020/12/24 11:10:21;;;;;;;2.30;1.90;;;10.30;99.90;;;;;;5108702;28;20556;-54
2020/12/24 11:12:47;;;;;;;2.20;1.90;;;10.50;99.90;;;;;;5111290;28;20440;-55
2020/12/24 11:15:14;;;;;;;2.63;1.53;;;10.70;99.90;;;;;;5110440;28;20493;-55
2020/12/24 11:17:40;;;;;;;1.40;1.30;;;10.90;99.90;;;;;;5099898;28;20452;-55
2020/12/24 11:20:07;;;;;;;2.30;1.77;;;11.00;99.90;;;;;;5091249;28;20991;-55
2020/12/24 11:22:34;;;;;;;1.73;1.33;;;10.90;99.90;;;;;;5091352;28;20493;-54
2020/12/24 11:25:00;;;;;;;2.23;2.03;;;10.80;99.90;;;;;;5091608;28;21056;-55
2020/12/24 11:27:28;;;;;;;2.53;2.10;;;10.70;99.90;;;;;;5091183;28;20449;-55
2020/12/24 11:29:54;;;;;;;2.20;2.03;;;10.80;99.90;;;;;;5110440;28;20440;-55
2020/12/24 11:32:21;;;;;;;2.50;2.30;;;10.90;99.90;;;;;;5081800;28;20450;-54
2020/12/24 11:34:47;;;;;;;3.13;2.50;;;10.90;99.90;;;;;;5073627;28;20442;-55
2020/12/24 11:37:14;;;;;;;3.40;2.77;;;10.90;99.90;;;;;;5090561;28;20453;-55
2020/12/24 11:39:40;;;;;;;3.10;2.87;;;10.90;99.90;;;;;;5099314;28;20470;-55
2020/12/24 11:42:08;;;;;;;4.97;4.03;;;11.00;99.90;;;;;;5110476;28;20488;-55
2020/12/24 11:44:37;;;;;;;4.20;3.73;;;10.90;99.90;;;;;;5108783;28;20448;-55
2020/12/24 11:47:03;;;;;;;5.50;4.20;;;10.80;99.90;;;;;;5090574;28;20475;-55
2020/12/24 11:49:30;;;;;;;4.73;3.90;;;10.70;99.90;;;;;;5095195;28;20514;-54
2020/12/24 11:52:02;;;;;;;3.77;3.07;;;10.80;99.90;;;;;;5094511;28;20518;-55
2020/12/24 11:54:28;;;;;;;3.63;3.20;;;11.10;99.90;;;;;;5110426;28;21166;-55
2020/12/24 11:56:55;;;;;;;4.43;3.77;;;11.40;99.90;;;;;;5114866;28;20445;-55
2020/12/24 11:59:22;;;;;;;3.73;3.07;;;11.80;99.90;;;;;;5094953;28;20452;-55
2020/12/24 12:01:51;;;;;;;3.83;2.50;;;12.00;99.90;;;;;;5084034;28;21041;-54
2020/12/24 12:04:17;;;;;;;2.30;2.10;;;11.70;99.90;;;;;;5074080;28;21025;-54
2020/12/24 12:06:44;;;;;;;1.93;1.83;;;11.30;99.90;;;;;;5112843;28;20973;-55
2020/12/24 12:09:11;;;;;;;2.93;1.70;;;11.00;99.90;;;;;;5114220;28;20472;-55
2020/12/24 12:11:38;;;;;;;2.97;1.60;;;10.90;99.90;;;;;;5114356;28;20966;-54
2020/12/24 12:14:05;;;;;;;2.40;1.50;;;10.80;99.90;;;;;;5078267;28;20905;-55
2020/12/24 12:16:32;;;;;;;2.03;1.17;;;10.70;99.90;;;;;;5079372;28;20475;-55
2020/12/24 12:18:59;;;;;;;3.07;1.30;;;10.70;99.90;;;;;;5073711;28;20446;-55
2020/12/24 12:21:26;;;;;;;2.10;1.40;;;10.40;99.90;;;;;;5092257;28;21052;-55
2020/12/24 12:23:53;;;;;;;1.80;1.50;;;10.50;99.90;;;;;;5084445;28;20454;-55
2020/12/24 12:26:19;;;;;;;1.60;1.50;;;10.40;99.90;;;;;;5091370;28;20519;-54
2020/12/24 12:28:46;;;;;;;3.43;1.50;;;10.40;99.90;;;;;;5093172;28;21113;-54
2020/12/24 12:31:20;;;;;;;3.13;1.77;;;10.40;99.90;;;;;;5086490;28;20532;-55
2020/12/24 12:33:48;;;;;;;2.67;1.70;;;10.20;99.90;;;;;;5093326;28;20510;-55
2020/12/24 12:36:15;;;;;;;5.13;2.20;;;10.30;99.90;;;;;;5093699;28;20453;-55
2020/12/24 12:38:42;;;;;;;2.80;2.07;;;10.30;99.90;;;;;;5093315;28;20448;-55
2020/12/24 12:41:09;;;;;;;4.00;1.63;;;10.30;99.90;;;;;;5092800;28;20534;-55
2020/12/24 12:43:35;;;;;;;5.17;2.90;;;10.50;99.90;;;;;;5093453;28;20537;-55
2020/12/24 12:46:02;;;;;;;2.30;1.43;;;10.30;99.90;;;;;;5093431;28;20481;-55
2020/12/24 12:48:28;;;;;;;5.20;1.87;;;10.30;99.90;;;;;;5093071;28;20448;-55
2020/12/24 12:50:55;;;;;;;1.97;1.60;;;10.20;99.90;;;;;;5092704;28;20477;-54
2020/12/24 12:53:22;;;;;;;2.23;1.40;;;10.20;99.90;;;;;;5093061;28;20450;-55
2020/12/24 12:55:49;;;;;;;3.13;1.20;;;10.00;99.90;;;;;;5090127;28;21007;-55
2020/12/24 12:58:16;;;;;;;1.27;0.90;;;10.10;99.90;;;;;;5083008;28;20446;-55
2020/12/24 13:00:42;;;;;;;1.60;0.70;;;10.10;99.90;;;;;;5092996;28;20476;-55